createdAt,value
2022-11-07T00:02:09.981Z,6.6
2022-11-07T00:07:08.175Z,6.7
2022-11-07T00:12:06.001Z,6.6
2022-11-07T00:17:04.556Z,6.6
2022-11-07T00:22:02.903Z,6.6
2022-11-07T00:27:01.258Z,6.5
2022-11-07T00:31:59.278Z,6.4
2022-11-07T00:36:57.696Z,6.4
2022-11-07T00:41:55.893Z,6.3
2022-11-07T00:46:53.934Z,6.3
2022-11-07T00:51:51.766Z,6.2
2022-11-07T00:56:49.893Z,6.2
2022-11-07T01:01:48.034Z,6.2
2022-11-07T01:06:46.095Z,6.1
2022-11-07T01:11:44.237Z,6.1
2022-11-07T01:16:42.150Z,5.9
2022-11-07T01:21:40.367Z,5.9
2022-11-07T01:26:38.844Z,6.1
2022-11-07T01:31:37.378Z,6.4
2022-11-07T01:36:35.463Z,6.4
2022-11-07T01:41:33.801Z,6.4
2022-11-07T01:46:31.810Z,6.3
2022-11-07T01:51:30.033Z,6.3
2022-11-07T01:56:28.006Z,6.2
2022-11-07T02:01:26.183Z,6.1
2022-11-07T02:06:24.229Z,6
2022-11-07T02:11:22.206Z,6
2022-11-07T02:16:20.339Z,6.1
2022-11-07T02:21:18.604Z,6.1
2022-11-07T02:26:16.767Z,6.1
2022-11-07T02:31:14.631Z,6.1
2022-11-07T02:36:12.790Z,6.1
2022-11-07T02:41:10.905Z,5.9
2022-11-07T02:46:09.176Z,5.9
2022-11-07T02:51:07.278Z,5.8
2022-11-07T02:56:05.273Z,5.4
2022-11-07T03:01:03.428Z,5.6
2022-11-07T03:06:01.944Z,6
2022-11-07T03:11:00.631Z,6.3
2022-11-07T03:15:59.346Z,6.5
2022-11-07T03:20:58.062Z,7
2022-11-07T03:25:56.490Z,7.3
2022-11-07T03:30:55.127Z,7.7
2022-11-07T03:35:53.347Z,7.9
2022-11-07T03:40:51.522Z,7.9
2022-11-07T03:45:49.525Z,7.4
2022-11-07T03:50:47.411Z,7.3
2022-11-07T03:55:45.525Z,6.8
2022-11-07T04:00:43.578Z,6.8
2022-11-07T04:05:41.703Z,6.8
2022-11-07T04:10:39.899Z,6.9
2022-11-07T04:15:37.928Z,6.5
2022-11-07T04:20:36.093Z,6.5
2022-11-07T04:25:34.187Z,6.7
2022-11-07T04:30:32.271Z,6.9
2022-11-07T04:35:30.584Z,7.3
2022-11-07T04:40:28.949Z,7.6
2022-11-07T04:45:27.537Z,7.4
2022-11-07T04:50:25.188Z,7.1
2022-11-07T04:55:22.706Z,6.6
2022-11-07T05:00:20.700Z,6.4
2022-11-07T05:05:18.680Z,6.4
2022-11-07T05:10:16.961Z,6.7
2022-11-07T05:15:15.189Z,6.7
2022-11-07T05:20:13.482Z,6.7
2022-11-07T05:25:11.788Z,7
2022-11-07T05:30:10.223Z,6.8
2022-11-07T05:35:08.352Z,7.2
2022-11-07T05:40:06.821Z,7.5
2022-11-07T05:45:06.128Z,7.8
2022-11-07T05:50:04.565Z,8.2
2022-11-07T05:55:02.949Z,8.4
2022-11-07T06:00:01.005Z,8.5
2022-11-07T06:04:59.592Z,8.7
2022-11-07T06:09:57.679Z,8.9
2022-11-07T06:14:55.934Z,9.3
2022-11-07T06:19:54.575Z,9.6
2022-11-07T06:24:53.160Z,9.5
2022-11-07T06:29:51.829Z,10.4
2022-11-07T06:34:50.678Z,10.9
2022-11-07T06:39:49.333Z,11.9
2022-11-07T06:44:48.335Z,12.6
2022-11-07T06:49:47.379Z,13.4
2022-11-07T06:54:46.328Z,14.3
2022-11-07T06:59:50.521Z,15.2
2022-11-07T07:04:44.598Z,16.6
2022-11-07T07:09:44.294Z,18.2
2022-11-07T07:14:44.405Z,20.6
2022-11-07T07:19:44.962Z,22.1
2022-11-07T07:24:44.356Z,23.1
2022-11-07T07:29:43.883Z,23.9
2022-11-07T07:34:48.951Z,27.3
2022-11-07T07:39:49.226Z,28.6
2022-11-07T07:44:44.946Z,27.4
2022-11-07T07:49:46.237Z,29.4
2022-11-07T07:54:44.496Z,29.4
2022-11-07T07:59:43.739Z,30
2022-11-07T08:04:42.363Z,30.6
2022-11-07T08:09:39.233Z,28.6
2022-11-07T08:14:34.581Z,27.8
2022-11-07T08:19:33.876Z,27.6
2022-11-07T08:24:33.721Z,27.6
2022-11-07T08:29:31.077Z,28.2
2022-11-07T08:34:31.894Z,29.4
2022-11-07T08:39:31.237Z,31.1
2022-11-07T08:44:29.754Z,30.6
2022-11-07T08:49:28.358Z,31.5
2022-11-07T08:54:27.023Z,32.3
2022-11-07T08:59:25.733Z,32.6
2022-11-07T09:04:24.083Z,32.1
2022-11-07T09:09:22.468Z,33.4
2022-11-07T09:14:20.909Z,33
2022-11-07T09:19:18.945Z,33.4
2022-11-07T09:24:17.015Z,33.8
2022-11-07T09:29:15.132Z,34.1
2022-11-07T09:34:13.648Z,34.4
2022-11-07T09:39:11.642Z,34
2022-11-07T09:44:09.273Z,33.8
2022-11-07T09:49:07.652Z,33.9
2022-11-07T09:54:04.633Z,32.3
2022-11-07T09:59:03.611Z,33.6
2022-11-07T10:04:24.517Z,34.3
2022-11-07T10:09:01.115Z,34.1
2022-11-07T10:13:59.107Z,34.5
2022-11-07T10:18:57.430Z,34.8
2022-11-07T10:23:55.551Z,35
2022-11-07T10:28:53.332Z,35
2022-11-07T10:33:51.261Z,34.6
2022-11-07T10:38:48.975Z,33.8
2022-11-07T10:43:47.144Z,33.8
2022-11-07T10:48:44.894Z,33.3
2022-11-07T10:53:42.406Z,32.4
2022-11-07T10:58:39.940Z,31.7
2022-11-07T11:03:44.108Z,30.7
2022-11-07T11:08:34.021Z,29.8
2022-11-07T11:13:31.599Z,28.8
2022-11-07T11:18:28.938Z,27.9
2022-11-07T11:23:26.157Z,27
2022-11-07T11:28:23.638Z,26.1
2022-11-07T11:33:20.759Z,25.4
2022-11-07T11:38:18.686Z,25.6
2022-11-07T11:43:16.512Z,25.7
2022-11-07T11:48:14.500Z,25.6
2022-11-07T11:53:12.436Z,25.4
2022-11-07T11:58:10.522Z,25.3
2022-11-07T12:03:08.775Z,25.6
2022-11-07T12:08:07.875Z,25.5
2022-11-07T12:13:06.077Z,25.5
2022-11-07T12:18:04.454Z,25.5
2022-11-07T12:23:02.445Z,25.2
2022-11-07T12:28:00.488Z,25.5
2022-11-07T12:32:58.674Z,24.9
2022-11-07T12:37:56.311Z,24.6
2022-11-07T12:42:58.798Z,24.4
2022-11-07T12:47:52.392Z,24
2022-11-07T12:52:50.160Z,23.5
2022-11-07T12:57:47.947Z,23
2022-11-07T13:02:45.435Z,22.3
2022-11-07T13:07:42.759Z,21.6
2022-11-07T13:12:40.438Z,21.2
2022-11-07T13:17:38.173Z,20.3
2022-11-07T13:22:35.447Z,19.3
2022-11-07T13:27:32.898Z,18.4
2022-11-07T13:32:30.504Z,17.9
2022-11-07T13:37:28.518Z,17.2
2022-11-07T13:42:26.059Z,16.8
2022-11-07T13:47:23.669Z,16.2
2022-11-07T13:52:21.465Z,15.8
2022-11-07T13:57:19.562Z,15.4
2022-11-07T14:02:17.701Z,15.2
2022-11-07T14:07:15.491Z,14.8
2022-11-07T14:12:13.412Z,14.5
2022-11-07T14:17:11.303Z,14.2
2022-11-07T14:22:13.711Z,13.8
2022-11-07T14:27:07.179Z,13.7
2022-11-07T14:32:05.118Z,13.3
2022-11-07T14:37:03.181Z,13.2
2022-11-07T14:42:01.133Z,12.9
2022-11-07T14:46:59.032Z,12.5
2022-11-07T14:51:57.105Z,12.4
2022-11-07T14:56:55.161Z,12
2022-11-07T15:01:53.535Z,11.6
2022-11-07T15:06:51.265Z,11.3
2022-11-07T15:11:49.056Z,10.9
2022-11-07T15:16:46.918Z,10.5
2022-11-07T15:21:44.922Z,10.3
2022-11-07T15:26:42.498Z,10
2022-11-07T15:31:40.998Z,9.7
2022-11-07T15:36:41.188Z,9.5
2022-11-07T15:41:36.872Z,9.3
2022-11-07T15:46:34.870Z,9.2
2022-11-07T15:51:33.079Z,9
2022-11-07T15:56:31.333Z,8.9
2022-11-07T16:01:29.511Z,9
2022-11-07T16:06:27.568Z,9
2022-11-07T16:11:25.593Z,9
2022-11-07T16:16:23.591Z,8.9
2022-11-07T16:21:21.548Z,8.8
2022-11-07T16:26:19.624Z,8.7
2022-11-07T16:31:18.048Z,8.7
2022-11-07T16:36:16.183Z,8.7
2022-11-07T16:41:14.244Z,8.7
2022-11-07T16:46:12.571Z,8.6
2022-11-07T16:51:10.694Z,8.6
2022-11-07T16:56:09.029Z,8.6
2022-11-07T17:01:07.294Z,8.5
2022-11-07T17:06:05.283Z,8.6
2022-11-07T17:11:03.225Z,8.6
2022-11-07T17:16:01.428Z,8.6
2022-11-07T17:20:59.694Z,8.6
2022-11-07T17:25:57.920Z,8.5
2022-11-07T17:30:56.287Z,8.6
2022-11-07T17:35:54.448Z,8.7
2022-11-07T17:40:52.506Z,8.8
2022-11-07T17:45:50.840Z,8.9
2022-11-07T17:50:49.234Z,9
2022-11-07T17:55:47.466Z,9.1
2022-11-07T18:00:45.624Z,9.2
2022-11-07T18:05:43.851Z,9.3
2022-11-07T18:10:42.170Z,9.4
2022-11-07T18:15:40.270Z,9.4
2022-11-07T18:20:38.531Z,9.5
2022-11-07T18:25:36.857Z,9.5
2022-11-07T18:30:34.979Z,9.5
2022-11-07T18:35:33.408Z,9.5
2022-11-07T18:40:31.655Z,9.5
2022-11-07T18:45:29.757Z,9.4
2022-11-07T18:50:27.949Z,9.3
2022-11-07T18:55:27.566Z,9.2
2022-11-07T19:00:24.513Z,9.2
2022-11-07T19:05:22.973Z,9.2
2022-11-07T19:10:21.080Z,9.1
2022-11-07T19:15:19.105Z,9.1
2022-11-07T19:20:17.088Z,9
2022-11-07T19:25:15.278Z,9
2022-11-07T19:30:13.362Z,9
2022-11-07T19:35:11.585Z,9.1
2022-11-07T19:40:09.821Z,9.1
2022-11-07T19:45:07.894Z,9.1
2022-11-07T19:50:06.203Z,9.1
2022-11-07T19:55:04.547Z,9.1
2022-11-07T20:00:01.588Z,9.1
2022-11-07T20:04:59.539Z,9.1
2022-11-07T20:09:57.814Z,9
2022-11-07T20:14:56.169Z,9.1
2022-11-07T20:19:54.423Z,9
2022-11-07T20:24:52.517Z,9
2022-11-07T20:29:50.542Z,9
2022-11-07T20:34:52.831Z,8.9
2022-11-07T20:39:46.857Z,8.8
2022-11-07T20:44:44.966Z,8.8
2022-11-07T20:49:43.139Z,8.8
2022-11-07T20:54:41.365Z,8.8
2022-11-07T20:59:39.431Z,8.8
2022-11-07T21:04:56.079Z,8.9
2022-11-07T21:09:35.627Z,8.9
2022-11-07T21:14:33.834Z,8.9
2022-11-07T21:19:31.929Z,9
2022-11-07T21:24:30.048Z,9
2022-11-07T21:29:29.684Z,9
2022-11-07T21:34:26.421Z,9
2022-11-07T21:39:24.896Z,8.9
2022-11-07T21:44:23.108Z,8.1
2022-11-07T21:49:21.157Z,8.8
2022-11-07T21:54:19.220Z,8.8
2022-11-07T21:59:17.262Z,8.8
2022-11-07T22:04:15.372Z,8.8
2022-11-07T22:09:13.495Z,8.9
2022-11-07T22:14:11.691Z,8.8
2022-11-07T22:19:12.647Z,8.8
2022-11-07T22:24:08.264Z,8.9
2022-11-07T22:29:06.447Z,8.8
2022-11-07T22:34:04.892Z,8.7
2022-11-07T22:39:03.244Z,8.8
2022-11-07T22:44:01.303Z,8.8
2022-11-07T22:48:59.421Z,8.6
2022-11-07T22:53:57.698Z,8.6
2022-11-07T22:58:55.812Z,8.5
2022-11-07T23:03:54.001Z,8.5
2022-11-07T23:08:52.052Z,8.4
2022-11-07T23:13:50.274Z,8.3
2022-11-07T23:18:48.483Z,8.2
2022-11-07T23:23:46.561Z,8.2
2022-11-07T23:28:44.609Z,8.1
2022-11-07T23:33:42.848Z,7.9
2022-11-07T23:38:40.772Z,7.8
2022-11-07T23:43:38.993Z,7.6
2022-11-07T23:48:37.115Z,7.6
2022-11-07T23:53:34.770Z,7.6
2022-11-07T23:58:31.775Z,7.6
